Kensington, Canada
Current Conditions -  °F | °C
As of 9:00 PM on Thursday 27 Nov 2014 (Local Time) from CYYG Reporting Station
Blowing Snow Blowing Snow  
Wind Chill: -8°   Ceiling: 1600
Heat Index: -2°   Visibility: 6mi
Dew Point: -4°   Wind: 13mph
Humidity: 86%   Direction: 340°NNW
Pressure: 29.86"   Gusts: 23mph
Location:  46.43°N, 63.65°W
Report Text: CYYG 280100Z 34011G20KT 6SM -FZDZ BR DRSN OVC016 M02/M04 A2986 RMK SC8 SLP113
Loading
Personal Weather Stations






























Interactive Weather Map New forecast layout! Learn more

10-Day Weather Forecast

Advertisements
Track Severe Weather on mobile